sensor_id;sensor_type;location;lat;lon;timestamp;temperature;humidity
16136;DHT22;8173;48.354;9.248;2023-05-07T00:00:39;10.60;99.90
16136;DHT22;8173;48.354;9.248;2023-05-07T00:03:07;10.40;99.90
16136;DHT22;8173;48.354;9.248;2023-05-07T00:05:34;10.40;99.90
16136;DHT22;8173;48.354;9.248;2023-05-07T00:08:01;10.30;99.90
16136;DHT22;8173;48.354;9.248;2023-05-07T00:10:28;10.20;99.90
16136;DHT22;8173;48.354;9.248;2023-05-07T00:12:54;10.20;99.90
16136;DHT22;8173;48.354;9.248;2023-05-07T00:15:21;10.10;99.90
16136;DHT22;8173;48.354;9.248;2023-05-07T00:17:48;10.00;99.90
16136;DHT22;8173;48.354;9.248;2023-05-07T00:20:16;10.00;99.90
16136;DHT22;8173;48.354;9.248;2023-05-07T00:22:43;10.00;99.90
16136;DHT22;8173;48.354;9.248;2023-05-07T00:25:10;10.00;99.90
16136;DHT22;8173;48.354;9.248;2023-05-07T00:27:36;10.00;99.90
16136;DHT22;8173;48.354;9.248;2023-05-07T00:30:04;10.00;99.90
16136;DHT22;8173;48.354;9.248;2023-05-07T00:32:31;9.90;99.90
16136;DHT22;8173;48.354;9.248;2023-05-07T00:34:58;9.90;99.90
16136;DHT22;8173;48.354;9.248;2023-05-07T00:37:26;9.80;99.90
16136;DHT22;8173;48.354;9.248;2023-05-07T00:39:53;9.70;99.90
16136;DHT22;8173;48.354;9.248;2023-05-07T00:42:19;9.70;99.90
16136;DHT22;8173;48.354;9.248;2023-05-07T00:44:46;9.70;99.90
16136;DHT22;8173;48.354;9.248;2023-05-07T00:47:13;9.70;99.90
16136;DHT22;8173;48.354;9.248;2023-05-07T00:49:42;9.60;99.90
16136;DHT22;8173;48.354;9.248;2023-05-07T00:52:11;9.60;99.90
16136;DHT22;8173;48.354;9.248;2023-05-07T00:54:40;9.60;99.90
16136;DHT22;8173;48.354;9.248;2023-05-07T00:57:09;9.50;99.90
16136;DHT22;8173;48.354;9.248;2023-05-07T00:59:36;9.60;99.90
16136;DHT22;8173;48.354;9.248;2023-05-07T01:02:03;9.40;99.90
16136;DHT22;8173;48.354;9.248;2023-05-07T01:04:30;9.40;99.90
16136;DHT22;8173;48.354;9.248;2023-05-07T01:06:57;9.00;99.90
16136;DHT22;8173;48.354;9.248;2023-05-07T01:09:25;9.20;99.90
16136;DHT22;8173;48.354;9.248;2023-05-07T01:11:53;9.20;99.90
16136;DHT22;8173;48.354;9.248;2023-05-07T01:14:22;9.20;99.90
16136;DHT22;8173;48.354;9.248;2023-05-07T01:16:50;9.10;99.90
16136;DHT22;8173;48.354;9.248;2023-05-07T01:19:18;9.10;99.90
16136;DHT22;8173;48.354;9.248;2023-05-07T01:21:46;9.00;99.90
16136;DHT22;8173;48.354;9.248;2023-05-07T01:24:15;8.90;99.90
16136;DHT22;8173;48.354;9.248;2023-05-07T01:26:42;9.00;99.90
16136;DHT22;8173;48.354;9.248;2023-05-07T01:29:09;8.90;99.90
16136;DHT22;8173;48.354;9.248;2023-05-07T01:31:36;8.90;99.90
16136;DHT22;8173;48.354;9.248;2023-05-07T01:34:05;9.00;99.90
16136;DHT22;8173;48.354;9.248;2023-05-07T01:36:34;8.90;99.90
16136;DHT22;8173;48.354;9.248;2023-05-07T01:39:03;8.90;99.90
16136;DHT22;8173;48.354;9.248;2023-05-07T01:41:32;9.00;99.90
16136;DHT22;8173;48.354;9.248;2023-05-07T01:43:59;9.00;99.90
16136;DHT22;8173;48.354;9.248;2023-05-07T01:46:27;9.00;99.90
16136;DHT22;8173;48.354;9.248;2023-05-07T01:48:54;9.00;99.90
16136;DHT22;8173;48.354;9.248;2023-05-07T01:51:21;8.90;99.90
16136;DHT22;8173;48.354;9.248;2023-05-07T01:53:48;9.00;99.90
16136;DHT22;8173;48.354;9.248;2023-05-07T01:56:16;9.00;99.90
16136;DHT22;8173;48.354;9.248;2023-05-07T01:58:44;8.90;99.90
16136;DHT22;8173;48.354;9.248;2023-05-07T02:01:12;8.80;99.90
16136;DHT22;8173;48.354;9.248;2023-05-07T02:03:39;8.80;99.90
16136;DHT22;8173;48.354;9.248;2023-05-07T02:06:06;8.70;99.90
16136;DHT22;8173;48.354;9.248;2023-05-07T02:08:33;8.70;99.90
16136;DHT22;8173;48.354;9.248;2023-05-07T02:10:59;8.60;99.90
16136;DHT22;8173;48.354;9.248;2023-05-07T02:13:32;8.70;99.90
16136;DHT22;8173;48.354;9.248;2023-05-07T02:16:00;8.70;99.90
16136;DHT22;8173;48.354;9.248;2023-05-07T02:18:27;8.70;99.90
16136;DHT22;8173;48.354;9.248;2023-05-07T02:20:54;8.60;99.90
16136;DHT22;8173;48.354;9.248;2023-05-07T02:23:21;8.60;99.90
16136;DHT22;8173;48.354;9.248;2023-05-07T02:25:47;8.60;99.90
16136;DHT22;8173;48.354;9.248;2023-05-07T02:28:14;8.60;99.90
16136;DHT22;8173;48.354;9.248;2023-05-07T02:30:41;8.50;99.90
16136;DHT22;8173;48.354;9.248;2023-05-07T02:33:09;8.40;99.90
16136;DHT22;8173;48.354;9.248;2023-05-07T02:35:37;8.30;99.90
16136;DHT22;8173;48.354;9.248;2023-05-07T02:38:04;8.30;99.90
16136;DHT22;8173;48.354;9.248;2023-05-07T02:40:31;8.30;99.90
16136;DHT22;8173;48.354;9.248;2023-05-07T02:42:59;8.20;99.90
16136;DHT22;8173;48.354;9.248;2023-05-07T02:45:25;8.20;99.90
16136;DHT22;8173;48.354;9.248;2023-05-07T02:47:52;8.20;99.90
16136;DHT22;8173;48.354;9.248;2023-05-07T02:50:20;8.30;99.90
16136;DHT22;8173;48.354;9.248;2023-05-07T02:52:47;8.30;99.90
16136;DHT22;8173;48.354;9.248;2023-05-07T02:55:14;8.20;99.90
16136;DHT22;8173;48.354;9.248;2023-05-07T02:57:40;8.20;99.90
16136;DHT22;8173;48.354;9.248;2023-05-07T03:00:11;8.00;99.90
16136;DHT22;8173;48.354;9.248;2023-05-07T03:02:38;8.00;99.90
16136;DHT22;8173;48.354;9.248;2023-05-07T03:05:06;7.80;99.90
16136;DHT22;8173;48.354;9.248;2023-05-07T03:07:34;7.70;99.90
16136;DHT22;8173;48.354;9.248;2023-05-07T03:10:01;7.70;99.90
16136;DHT22;8173;48.354;9.248;2023-05-07T03:12:28;7.70;99.90
16136;DHT22;8173;48.354;9.248;2023-05-07T03:14:54;7.70;99.90
16136;DHT22;8173;48.354;9.248;2023-05-07T03:17:22;7.70;99.90
16136;DHT22;8173;48.354;9.248;2023-05-07T03:19:48;7.80;99.90
16136;DHT22;8173;48.354;9.248;2023-05-07T03:22:15;7.90;99.90
16136;DHT22;8173;48.354;9.248;2023-05-07T03:24:43;7.90;99.90
16136;DHT22;8173;48.354;9.248;2023-05-07T03:27:10;7.80;99.90
16136;DHT22;8173;48.354;9.248;2023-05-07T03:29:36;7.90;99.90
16136;DHT22;8173;48.354;9.248;2023-05-07T03:32:04;7.80;99.90
16136;DHT22;8173;48.354;9.248;2023-05-07T03:34:31;7.70;99.90
16136;DHT22;8173;48.354;9.248;2023-05-07T03:36:57;7.70;99.90
16136;DHT22;8173;48.354;9.248;2023-05-07T03:39:24;7.70;99.90
16136;DHT22;8173;48.354;9.248;2023-05-07T03:41:52;7.60;99.90
16136;DHT22;8173;48.354;9.248;2023-05-07T03:44:19;7.60;99.90
16136;DHT22;8173;48.354;9.248;2023-05-07T03:46:46;7.60;99.90
16136;DHT22;8173;48.354;9.248;2023-05-07T03:49:13;7.50;99.90
16136;DHT22;8173;48.354;9.248;2023-05-07T03:51:39;7.50;99.90
16136;DHT22;8173;48.354;9.248;2023-05-07T03:54:07;7.40;99.90
16136;DHT22;8173;48.354;9.248;2023-05-07T03:56:34;7.40;99.90
16136;DHT22;8173;48.354;9.248;2023-05-07T03:59:02;7.40;99.90
16136;DHT22;8173;48.354;9.248;2023-05-07T04:01:29;7.40;99.90
16136;DHT22;8173;48.354;9.248;2023-05-07T04:03:55;7.50;99.90
16136;DHT22;8173;48.354;9.248;2023-05-07T04:06:22;8.20;99.90
16136;DHT22;8173;48.354;9.248;2023-05-07T04:08:49;7.50;99.90
16136;DHT22;8173;48.354;9.248;2023-05-07T04:11:16;7.60;99.90
16136;DHT22;8173;48.354;9.248;2023-05-07T04:13:43;7.60;99.90
16136;DHT22;8173;48.354;9.248;2023-05-07T04:16:11;7.60;99.90
16136;DHT22;8173;48.354;9.248;2023-05-07T04:18:37;7.60;99.90
16136;DHT22;8173;48.354;9.248;2023-05-07T04:21:04;7.70;99.90
16136;DHT22;8173;48.354;9.248;2023-05-07T04:23:31;7.70;99.90
16136;DHT22;8173;48.354;9.248;2023-05-07T04:25:58;7.60;99.90
16136;DHT22;8173;48.354;9.248;2023-05-07T04:28:24;7.60;99.90
16136;DHT22;8173;48.354;9.248;2023-05-07T04:30:51;7.50;99.90
16136;DHT22;8173;48.354;9.248;2023-05-07T04:33:19;7.50;99.90
16136;DHT22;8173;48.354;9.248;2023-05-07T04:35:46;7.60;99.90
16136;DHT22;8173;48.354;9.248;2023-05-07T04:38:12;7.70;99.90
16136;DHT22;8173;48.354;9.248;2023-05-07T04:40:39;7.80;99.90
16136;DHT22;8173;48.354;9.248;2023-05-07T04:43:06;7.70;99.90
16136;DHT22;8173;48.354;9.248;2023-05-07T04:45:34;7.70;99.90
16136;DHT22;8173;48.354;9.248;2023-05-07T04:48:01;7.80;99.90
16136;DHT22;8173;48.354;9.248;2023-05-07T04:50:29;7.90;99.90
16136;DHT22;8173;48.354;9.248;2023-05-07T04:52:56;8.00;99.90
16136;DHT22;8173;48.354;9.248;2023-05-07T04:55:23;8.20;99.90
16136;DHT22;8173;48.354;9.248;2023-05-07T04:57:50;8.20;99.90
16136;DHT22;8173;48.354;9.248;2023-05-07T05:00:16;8.30;99.90
16136;DHT22;8173;48.354;9.248;2023-05-07T05:02:45;8.30;99.90
16136;DHT22;8173;48.354;9.248;2023-05-07T05:05:11;8.40;99.90
16136;DHT22;8173;48.354;9.248;2023-05-07T05:07:39;8.50;99.90
16136;DHT22;8173;48.354;9.248;2023-05-07T05:10:06;9.70;99.90
16136;DHT22;8173;48.354;9.248;2023-05-07T05:12:33;9.60;99.90
16136;DHT22;8173;48.354;9.248;2023-05-07T05:15:00;10.40;99.90
16136;DHT22;8173;48.354;9.248;2023-05-07T05:17:26;10.90;99.90
16136;DHT22;8173;48.354;9.248;2023-05-07T05:19:53;11.20;99.90
16136;DHT22;8173;48.354;9.248;2023-05-07T05:22:20;11.60;99.90
16136;DHT22;8173;48.354;9.248;2023-05-07T05:24:48;12.60;99.90
16136;DHT22;8173;48.354;9.248;2023-05-07T05:27:14;13.80;99.90
16136;DHT22;8173;48.354;9.248;2023-05-07T05:29:41;14.50;99.90
16136;DHT22;8173;48.354;9.248;2023-05-07T05:32:08;14.80;99.90
16136;DHT22;8173;48.354;9.248;2023-05-07T05:34:35;14.80;99.90
16136;DHT22;8173;48.354;9.248;2023-05-07T05:37:02;14.50;99.90
16136;DHT22;8173;48.354;9.248;2023-05-07T05:39:28;14.50;99.90
16136;DHT22;8173;48.354;9.248;2023-05-07T05:41:57;15.10;99.90
16136;DHT22;8173;48.354;9.248;2023-05-07T05:44:24;16.00;99.90
16136;DHT22;8173;48.354;9.248;2023-05-07T05:46:50;17.00;99.90
16136;DHT22;8173;48.354;9.248;2023-05-07T05:49:20;17.30;99.90
16136;DHT22;8173;48.354;9.248;2023-05-07T05:51:46;17.50;99.90
16136;DHT22;8173;48.354;9.248;2023-05-07T05:54:13;17.50;99.90
16136;DHT22;8173;48.354;9.248;2023-05-07T05:56:42;17.40;99.90
16136;DHT22;8173;48.354;9.248;2023-05-07T05:59:10;17.40;99.90
16136;DHT22;8173;48.354;9.248;2023-05-07T06:01:37;17.70;99.90
16136;DHT22;8173;48.354;9.248;2023-05-07T06:04:04;18.20;99.90
16136;DHT22;8173;48.354;9.248;2023-05-07T06:06:30;19.00;99.90
16136;DHT22;8173;48.354;9.248;2023-05-07T06:08:57;19.70;99.90
16136;DHT22;8173;48.354;9.248;2023-05-07T06:11:25;20.20;99.90
16136;DHT22;8173;48.354;9.248;2023-05-07T06:13:52;20.60;99.90
16136;DHT22;8173;48.354;9.248;2023-05-07T06:16:20;20.70;99.90
16136;DHT22;8173;48.354;9.248;2023-05-07T06:18:47;21.00;99.90
16136;DHT22;8173;48.354;9.248;2023-05-07T06:21:14;21.00;99.90
16136;DHT22;8173;48.354;9.248;2023-05-07T06:23:40;21.60;99.90
16136;DHT22;8173;48.354;9.248;2023-05-07T06:26:07;21.20;99.90
16136;DHT22;8173;48.354;9.248;2023-05-07T06:28:34;20.70;99.90
16136;DHT22;8173;48.354;9.248;2023-05-07T06:31:11;20.20;99.90
16136;DHT22;8173;48.354;9.248;2023-05-07T06:33:39;19.80;99.90
16136;DHT22;8173;48.354;9.248;2023-05-07T06:36:06;18.70;99.90
16136;DHT22;8173;48.354;9.248;2023-05-07T06:38:33;18.60;99.90
16136;DHT22;8173;48.354;9.248;2023-05-07T06:41:00;18.70;99.90
16136;DHT22;8173;48.354;9.248;2023-05-07T06:43:26;18.90;99.90
16136;DHT22;8173;48.354;9.248;2023-05-07T06:45:53;19.90;99.90
16136;DHT22;8173;48.354;9.248;2023-05-07T06:48:20;21.00;99.90
16136;DHT22;8173;48.354;9.248;2023-05-07T06:50:48;21.30;99.90
16136;DHT22;8173;48.354;9.248;2023-05-07T06:53:15;20.60;99.90
16136;DHT22;8173;48.354;9.248;2023-05-07T06:55:41;19.80;99.90
16136;DHT22;8173;48.354;9.248;2023-05-07T06:58:08;19.10;99.90
16136;DHT22;8173;48.354;9.248;2023-05-07T07:00:35;18.80;99.90
16136;DHT22;8173;48.354;9.248;2023-05-07T07:03:01;18.50;99.90
16136;DHT22;8173;48.354;9.248;2023-05-07T07:05:28;18.00;99.90
16136;DHT22;8173;48.354;9.248;2023-05-07T07:07:56;18.10;99.90
16136;DHT22;8173;48.354;9.248;2023-05-07T07:10:23;17.90;99.90
16136;DHT22;8173;48.354;9.248;2023-05-07T07:12:50;17.90;99.90
16136;DHT22;8173;48.354;9.248;2023-05-07T07:15:17;17.70;99.90
16136;DHT22;8173;48.354;9.248;2023-05-07T07:17:46;17.80;99.90
16136;DHT22;8173;48.354;9.248;2023-05-07T07:20:13;17.60;99.90
16136;DHT22;8173;48.354;9.248;2023-05-07T07:22:40;17.60;99.90
16136;DHT22;8173;48.354;9.248;2023-05-07T07:25:08;18.00;99.90
16136;DHT22;8173;48.354;9.248;2023-05-07T07:27:36;18.00;99.90
16136;DHT22;8173;48.354;9.248;2023-05-07T07:30:04;18.40;99.90
16136;DHT22;8173;48.354;9.248;2023-05-07T07:32:31;19.20;99.90
16136;DHT22;8173;48.354;9.248;2023-05-07T07:34:58;19.80;99.90
16136;DHT22;8173;48.354;9.248;2023-05-07T07:37:25;20.50;99.90
16136;DHT22;8173;48.354;9.248;2023-05-07T07:39:52;20.70;99.90
16136;DHT22;8173;48.354;9.248;2023-05-07T07:42:20;20.50;99.90
16136;DHT22;8173;48.354;9.248;2023-05-07T07:44:47;20.20;99.90
16136;DHT22;8173;48.354;9.248;2023-05-07T07:47:13;19.90;99.90
16136;DHT22;8173;48.354;9.248;2023-05-07T07:49:40;20.20;99.90
16136;DHT22;8173;48.354;9.248;2023-05-07T07:52:07;20.90;99.90
16136;DHT22;8173;48.354;9.248;2023-05-07T07:54:33;21.20;99.90
16136;DHT22;8173;48.354;9.248;2023-05-07T07:57:00;21.30;99.90
16136;DHT22;8173;48.354;9.248;2023-05-07T07:59:28;21.20;99.90
16136;DHT22;8173;48.354;9.248;2023-05-07T08:01:55;20.70;99.90
16136;DHT22;8173;48.354;9.248;2023-05-07T08:04:22;20.50;99.90
16136;DHT22;8173;48.354;9.248;2023-05-07T08:06:49;19.90;99.90
16136;DHT22;8173;48.354;9.248;2023-05-07T08:09:16;20.00;99.90
16136;DHT22;8173;48.354;9.248;2023-05-07T08:11:42;20.00;99.90
16136;DHT22;8173;48.354;9.248;2023-05-07T08:14:09;20.30;99.90
16136;DHT22;8173;48.354;9.248;2023-05-07T08:16:37;21.00;99.90
16136;DHT22;8173;48.354;9.248;2023-05-07T08:19:04;21.40;99.90
16136;DHT22;8173;48.354;9.248;2023-05-07T08:21:31;20.80;99.90
16136;DHT22;8173;48.354;9.248;2023-05-07T08:23:58;20.70;99.90
16136;DHT22;8173;48.354;9.248;2023-05-07T08:26:24;21.20;99.90
16136;DHT22;8173;48.354;9.248;2023-05-07T08:28:51;21.40;99.90
16136;DHT22;8173;48.354;9.248;2023-05-07T08:31:18;21.70;99.90
16136;DHT22;8173;48.354;9.248;2023-05-07T08:33:46;22.10;99.90
16136;DHT22;8173;48.354;9.248;2023-05-07T08:36:12;22.10;99.90
16136;DHT22;8173;48.354;9.248;2023-05-07T08:38:39;21.80;99.90
16136;DHT22;8173;48.354;9.248;2023-05-07T08:41:10;21.70;99.90
16136;DHT22;8173;48.354;9.248;2023-05-07T08:43:38;21.60;99.90
16136;DHT22;8173;48.354;9.248;2023-05-07T08:46:09;21.70;99.90
16136;DHT22;8173;48.354;9.248;2023-05-07T08:48:36;21.60;99.90
16136;DHT22;8173;48.354;9.248;2023-05-07T08:51:05;21.40;99.90
16136;DHT22;8173;48.354;9.248;2023-05-07T08:53:33;21.60;99.90
16136;DHT22;8173;48.354;9.248;2023-05-07T08:56:00;21.90;99.90
16136;DHT22;8173;48.354;9.248;2023-05-07T08:58:26;22.00;99.90
16136;DHT22;8173;48.354;9.248;2023-05-07T09:00:54;22.10;99.90
16136;DHT22;8173;48.354;9.248;2023-05-07T09:03:20;22.30;99.90
16136;DHT22;8173;48.354;9.248;2023-05-07T09:05:47;21.20;99.90
16136;DHT22;8173;48.354;9.248;2023-05-07T09:08:15;21.10;99.90
16136;DHT22;8173;48.354;9.248;2023-05-07T09:10:42;21.60;99.90
16136;DHT22;8173;48.354;9.248;2023-05-07T09:13:09;22.20;99.90
16136;DHT22;8173;48.354;9.248;2023-05-07T09:15:38;22.20;99.90
16136;DHT22;8173;48.354;9.248;2023-05-07T09:18:05;22.10;99.90
16136;DHT22;8173;48.354;9.248;2023-05-07T09:20:33;22.20;99.90
16136;DHT22;8173;48.354;9.248;2023-05-07T09:22:59;22.30;99.90
16136;DHT22;8173;48.354;9.248;2023-05-07T09:25:31;22.40;99.90
16136;DHT22;8173;48.354;9.248;2023-05-07T09:27:58;22.40;99.90
16136;DHT22;8173;48.354;9.248;2023-05-07T09:30:28;22.70;99.90
16136;DHT22;8173;48.354;9.248;2023-05-07T09:32:55;22.80;99.90
16136;DHT22;8173;48.354;9.248;2023-05-07T09:35:22;23.20;99.90
16136;DHT22;8173;48.354;9.248;2023-05-07T09:37:52;23.60;99.90
16136;DHT22;8173;48.354;9.248;2023-05-07T09:40:21;23.70;99.90
16136;DHT22;8173;48.354;9.248;2023-05-07T09:42:50;23.80;99.90
16136;DHT22;8173;48.354;9.248;2023-05-07T09:45:21;23.80;99.90
16136;DHT22;8173;48.354;9.248;2023-05-07T09:47:48;23.70;99.90
16136;DHT22;8173;48.354;9.248;2023-05-07T09:50:16;23.70;99.90
16136;DHT22;8173;48.354;9.248;2023-05-07T09:52:44;23.70;99.90
16136;DHT22;8173;48.354;9.248;2023-05-07T09:55:12;23.80;99.90
16136;DHT22;8173;48.354;9.248;2023-05-07T09:57:40;23.50;99.90
16136;DHT22;8173;48.354;9.248;2023-05-07T10:00:10;23.30;99.90
16136;DHT22;8173;48.354;9.248;2023-05-07T10:02:39;23.10;99.90
16136;DHT22;8173;48.354;9.248;2023-05-07T10:05:12;23.00;99.90
16136;DHT22;8173;48.354;9.248;2023-05-07T10:07:39;22.90;99.90
16136;DHT22;8173;48.354;9.248;2023-05-07T10:10:07;22.90;99.90
16136;DHT22;8173;48.354;9.248;2023-05-07T10:12:35;23.60;99.90
16136;DHT22;8173;48.354;9.248;2023-05-07T10:15:06;24.10;99.90
16136;DHT22;8173;48.354;9.248;2023-05-07T10:17:36;23.50;99.90
16136;DHT22;8173;48.354;9.248;2023-05-07T10:20:03;23.30;99.90
16136;DHT22;8173;48.354;9.248;2023-05-07T10:22:34;22.70;99.90
16136;DHT22;8173;48.354;9.248;2023-05-07T10:25:06;22.20;99.90
16136;DHT22;8173;48.354;9.248;2023-05-07T10:27:36;21.80;99.90
16136;DHT22;8173;48.354;9.248;2023-05-07T10:30:10;21.40;99.90
16136;DHT22;8173;48.354;9.248;2023-05-07T10:32:43;21.00;99.90
16136;DHT22;8173;48.354;9.248;2023-05-07T10:35:20;21.20;99.90
16136;DHT22;8173;48.354;9.248;2023-05-07T10:37:48;21.00;99.90
16136;DHT22;8173;48.354;9.248;2023-05-07T10:40:15;21.20;99.90
16136;DHT22;8173;48.354;9.248;2023-05-07T10:42:58;21.50;99.90
16136;DHT22;8173;48.354;9.248;2023-05-07T10:45:26;21.30;99.90
16136;DHT22;8173;48.354;9.248;2023-05-07T10:48:08;21.00;99.90
16136;DHT22;8173;48.354;9.248;2023-05-07T10:50:35;20.70;99.90
16136;DHT22;8173;48.354;9.248;2023-05-07T10:53:22;20.50;99.90
16136;DHT22;8173;48.354;9.248;2023-05-07T10:58:50;20.30;99.90
16136;DHT22;8173;48.354;9.248;2023-05-07T11:01:49;20.50;99.90
16136;DHT22;8173;48.354;9.248;2023-05-07T11:04:18;20.10;99.90
16136;DHT22;8173;48.354;9.248;2023-05-07T11:10:05;19.60;99.90
16136;DHT22;8173;48.354;9.248;2023-05-07T11:12:50;19.40;99.90
16136;DHT22;8173;48.354;9.248;2023-05-07T11:15:37;19.20;99.90
16136;DHT22;8173;48.354;9.248;2023-05-07T11:18:04;19.10;99.90
16136;DHT22;8173;48.354;9.248;2023-05-07T11:20:50;19.30;99.90
16136;DHT22;8173;48.354;9.248;2023-05-07T11:26:46;19.30;99.90
16136;DHT22;8173;48.354;9.248;2023-05-07T11:29:15;19.40;99.90
16136;DHT22;8173;48.354;9.248;2023-05-07T11:31:42;19.30;99.90
16136;DHT22;8173;48.354;9.248;2023-05-07T11:34:09;19.00;99.90
16136;DHT22;8173;48.354;9.248;2023-05-07T11:36:42;18.80;99.90
16136;DHT22;8173;48.354;9.248;2023-05-07T11:39:27;18.60;99.90
16136;DHT22;8173;48.354;9.248;2023-05-07T11:41:54;18.50;99.90
16136;DHT22;8173;48.354;9.248;2023-05-07T11:44:21;18.40;99.90
16136;DHT22;8173;48.354;9.248;2023-05-07T11:46:48;18.40;99.90
16136;DHT22;8173;48.354;9.248;2023-05-07T11:49:15;18.30;99.90
16136;DHT22;8173;48.354;9.248;2023-05-07T11:51:43;18.20;99.90
16136;DHT22;8173;48.354;9.248;2023-05-07T11:54:15;18.20;99.90
16136;DHT22;8173;48.354;9.248;2023-05-07T11:56:42;18.30;99.90
16136;DHT22;8173;48.354;9.248;2023-05-07T11:59:10;18.30;99.90
16136;DHT22;8173;48.354;9.248;2023-05-07T12:01:36;18.30;99.90
16136;DHT22;8173;48.354;9.248;2023-05-07T12:04:03;18.20;99.90
16136;DHT22;8173;48.354;9.248;2023-05-07T12:06:30;18.20;99.90
16136;DHT22;8173;48.354;9.248;2023-05-07T12:08:58;18.30;99.90
16136;DHT22;8173;48.354;9.248;2023-05-07T12:11:25;18.30;99.90
16136;DHT22;8173;48.354;9.248;2023-05-07T12:13:54;18.30;99.90
16136;DHT22;8173;48.354;9.248;2023-05-07T12:16:21;18.30;99.90
16136;DHT22;8173;48.354;9.248;2023-05-07T12:18:48;18.20;99.90
16136;DHT22;8173;48.354;9.248;2023-05-07T12:21:15;18.20;99.90
16136;DHT22;8173;48.354;9.248;2023-05-07T12:23:42;18.30;99.90
16136;DHT22;8173;48.354;9.248;2023-05-07T12:26:11;18.10;99.90
16136;DHT22;8173;48.354;9.248;2023-05-07T12:28:38;18.10;99.90
16136;DHT22;8173;48.354;9.248;2023-05-07T12:31:05;18.00;99.90
16136;DHT22;8173;48.354;9.248;2023-05-07T12:33:32;17.90;99.90
16136;DHT22;8173;48.354;9.248;2023-05-07T12:36:04;18.00;99.90
16136;DHT22;8173;48.354;9.248;2023-05-07T12:38:36;18.00;99.90
16136;DHT22;8173;48.354;9.248;2023-05-07T12:41:05;18.00;99.90
16136;DHT22;8173;48.354;9.248;2023-05-07T12:43:33;18.00;99.90
16136;DHT22;8173;48.354;9.248;2023-05-07T12:46:01;17.90;99.90
16136;DHT22;8173;48.354;9.248;2023-05-07T12:48:29;17.80;99.90
16136;DHT22;8173;48.354;9.248;2023-05-07T12:50:57;17.80;99.90
16136;DHT22;8173;48.354;9.248;2023-05-07T12:53:25;17.90;99.90
16136;DHT22;8173;48.354;9.248;2023-05-07T12:55:53;17.70;99.90
16136;DHT22;8173;48.354;9.248;2023-05-07T12:58:21;17.70;99.90
16136;DHT22;8173;48.354;9.248;2023-05-07T13:00:51;17.50;99.90
16136;DHT22;8173;48.354;9.248;2023-05-07T13:03:22;17.30;99.90
16136;DHT22;8173;48.354;9.248;2023-05-07T13:05:50;17.10;99.90
16136;DHT22;8173;48.354;9.248;2023-05-07T13:08:30;16.90;99.90
16136;DHT22;8173;48.354;9.248;2023-05-07T13:10:58;16.70;99.90
16136;DHT22;8173;48.354;9.248;2023-05-07T13:13:28;16.60;99.90
16136;DHT22;8173;48.354;9.248;2023-05-07T13:15:56;16.40;99.90
16136;DHT22;8173;48.354;9.248;2023-05-07T13:18:24;16.30;99.90
16136;DHT22;8173;48.354;9.248;2023-05-07T13:20:51;16.20;99.90
16136;DHT22;8173;48.354;9.248;2023-05-07T13:23:18;16.10;99.90
16136;DHT22;8173;48.354;9.248;2023-05-07T13:25:45;16.10;99.90
16136;DHT22;8173;48.354;9.248;2023-05-07T13:28:11;16.00;99.90
16136;DHT22;8173;48.354;9.248;2023-05-07T13:30:38;15.70;99.90
16136;DHT22;8173;48.354;9.248;2023-05-07T13:33:07;15.40;99.90
16136;DHT22;8173;48.354;9.248;2023-05-07T13:35:34;14.90;99.90
16136;DHT22;8173;48.354;9.248;2023-05-07T13:38:01;14.50;99.90
16136;DHT22;8173;48.354;9.248;2023-05-07T13:40:28;14.10;99.90
16136;DHT22;8173;48.354;9.248;2023-05-07T13:42:57;13.90;99.90
16136;DHT22;8173;48.354;9.248;2023-05-07T13:45:24;13.50;99.90
16136;DHT22;8173;48.354;9.248;2023-05-07T13:47:52;13.40;99.90
16136;DHT22;8173;48.354;9.248;2023-05-07T13:50:20;13.20;99.90
16136;DHT22;8173;48.354;9.248;2023-05-07T13:52:47;13.10;99.90
16136;DHT22;8173;48.354;9.248;2023-05-07T13:55:16;13.10;99.90
16136;DHT22;8173;48.354;9.248;2023-05-07T13:57:43;13.10;99.90
16136;DHT22;8173;48.354;9.248;2023-05-07T14:00:11;12.90;99.90
16136;DHT22;8173;48.354;9.248;2023-05-07T14:02:37;12.80;99.90
16136;DHT22;8173;48.354;9.248;2023-05-07T14:05:05;12.60;99.90
16136;DHT22;8173;48.354;9.248;2023-05-07T14:07:33;12.50;99.90
16136;DHT22;8173;48.354;9.248;2023-05-07T14:10:00;12.50;99.90
16136;DHT22;8173;48.354;9.248;2023-05-07T14:12:26;12.60;99.90
16136;DHT22;8173;48.354;9.248;2023-05-07T14:14:53;12.50;99.90
16136;DHT22;8173;48.354;9.248;2023-05-07T14:17:20;12.40;99.90
16136;DHT22;8173;48.354;9.248;2023-05-07T14:19:48;12.30;99.90
16136;DHT22;8173;48.354;9.248;2023-05-07T14:22:15;12.20;99.90
16136;DHT22;8173;48.354;9.248;2023-05-07T14:24:43;12.20;99.90
16136;DHT22;8173;48.354;9.248;2023-05-07T14:27:09;12.20;99.90
16136;DHT22;8173;48.354;9.248;2023-05-07T14:29:36;12.20;99.90
16136;DHT22;8173;48.354;9.248;2023-05-07T14:32:03;12.20;99.90
16136;DHT22;8173;48.354;9.248;2023-05-07T14:34:31;12.20;99.90
16136;DHT22;8173;48.354;9.248;2023-05-07T14:37:00;12.30;99.90
16136;DHT22;8173;48.354;9.248;2023-05-07T14:39:27;12.40;99.90
16136;DHT22;8173;48.354;9.248;2023-05-07T14:41:55;12.30;99.90
16136;DHT22;8173;48.354;9.248;2023-05-07T14:44:21;12.30;99.90
16136;DHT22;8173;48.354;9.248;2023-05-07T14:46:48;12.40;99.90
16136;DHT22;8173;48.354;9.248;2023-05-07T14:49:15;12.40;99.90
16136;DHT22;8173;48.354;9.248;2023-05-07T14:51:43;12.50;99.90
16136;DHT22;8173;48.354;9.248;2023-05-07T14:54:10;12.40;99.90
16136;DHT22;8173;48.354;9.248;2023-05-07T14:56:37;12.70;99.90
16136;DHT22;8173;48.354;9.248;2023-05-07T14:59:05;13.00;99.90
16136;DHT22;8173;48.354;9.248;2023-05-07T15:01:32;13.30;99.90
16136;DHT22;8173;48.354;9.248;2023-05-07T15:04:00;13.80;99.90
16136;DHT22;8173;48.354;9.248;2023-05-07T15:06:27;14.30;99.90
16136;DHT22;8173;48.354;9.248;2023-05-07T15:08:54;14.70;99.90
16136;DHT22;8173;48.354;9.248;2023-05-07T15:11:22;15.00;99.90
16136;DHT22;8173;48.354;9.248;2023-05-07T15:13:49;15.40;99.90
16136;DHT22;8173;48.354;9.248;2023-05-07T15:16:17;15.80;99.90
16136;DHT22;8173;48.354;9.248;2023-05-07T15:18:44;15.80;99.90
16136;DHT22;8173;48.354;9.248;2023-05-07T15:21:11;15.70;99.90
16136;DHT22;8173;48.354;9.248;2023-05-07T15:23:38;15.60;99.90
16136;DHT22;8173;48.354;9.248;2023-05-07T15:26:06;15.70;99.90
16136;DHT22;8173;48.354;9.248;2023-05-07T15:28:34;15.70;99.90
16136;DHT22;8173;48.354;9.248;2023-05-07T15:31:00;16.00;99.90
16136;DHT22;8173;48.354;9.248;2023-05-07T15:33:28;16.10;99.90
16136;DHT22;8173;48.354;9.248;2023-05-07T15:35:55;16.00;99.90
16136;DHT22;8173;48.354;9.248;2023-05-07T15:38:24;15.90;99.90
16136;DHT22;8173;48.354;9.248;2023-05-07T15:40:51;15.80;99.90
16136;DHT22;8173;48.354;9.248;2023-05-07T15:43:18;15.80;99.90
16136;DHT22;8173;48.354;9.248;2023-05-07T15:45:44;15.70;99.90
16136;DHT22;8173;48.354;9.248;2023-05-07T15:48:11;15.70;99.90
16136;DHT22;8173;48.354;9.248;2023-05-07T15:50:39;15.50;99.90
16136;DHT22;8173;48.354;9.248;2023-05-07T15:53:06;15.40;99.90
16136;DHT22;8173;48.354;9.248;2023-05-07T15:55:33;15.30;99.90
16136;DHT22;8173;48.354;9.248;2023-05-07T15:58:00;15.30;99.90
16136;DHT22;8173;48.354;9.248;2023-05-07T16:00:27;15.20;99.90
16136;DHT22;8173;48.354;9.248;2023-05-07T16:02:55;15.20;99.90